Time;durP1;ratioP1;P1;durP2;ratioP2;P2;SDS_P1;SDS_P2;PMS_P1;PMS_P2;Temp;Humidity;BMP_temperature;BMP_pressure;BME280_temperature;BME280_humidity;BME280_pressure;Samples;Min_cycle;Max_cycle;Signal;HPM_P1;HPM_P2
2023/11/08 00:01:16;;;;;;;15.20;10.10;;;;;;;7.07;76.70;99715.54;103241;1254;139055;-65
2023/11/08 00:03:46;;;;;;;20.70;11.00;;;;;;;7.06;76.73;99715.41;103232;1254;107778;-64
2023/11/08 00:06:22;;;;;;;21.00;11.40;;;;;;;7.03;76.93;99709.27;103494;1254;96446;-64
2023/11/08 00:08:51;;;;;;;17.20;10.00;;;;;;;7.01;76.88;99710.52;103488;1254;137733;-65
2023/11/08 00:11:23;;;;;;;20.30;10.60;;;;;;;6.99;76.88;99709.52;103351;1254;97029;-64
2023/11/08 00:13:54;;;;;;;18.30;11.30;;;;;;;6.97;77.06;99709.58;103248;1256;138462;-64
2023/11/08 00:16:42;;;;;;;17.90;11.00;;;;;;;6.96;76.97;99709.75;103325;1254;109264;-64
2023/11/08 00:19:29;;;;;;;17.60;10.90;;;;;;;6.96;77.25;99709.94;103213;1255;137976;-65
2023/11/08 00:22:07;;;;;;;17.80;10.40;;;;;;;6.98;77.34;99707.45;103558;1258;108701;-65
2023/11/08 00:24:46;;;;;;;17.20;10.30;;;;;;;7.00;77.28;99704.83;103408;1254;139331;-65
2023/11/08 00:27:23;;;;;;;18.90;10.40;;;;;;;7.00;77.17;99703.98;103428;1254;110761;-64
2023/11/08 00:29:50;;;;;;;18.00;11.10;;;;;;;7.00;77.15;99699.98;103302;1254;107468;-65
2023/11/08 00:32:32;;;;;;;19.70;10.70;;;;;;;7.01;77.15;99702.74;103167;1255;138212;-65
2023/11/08 00:35:20;;;;;;;17.10;11.00;;;;;;;7.03;77.15;99701.82;103341;1254;108286;-65
2023/11/08 00:38:00;;;;;;;16.50;10.00;;;;;;;7.03;77.28;99699.92;103218;1258;138012;-65
2023/11/08 00:40:46;;;;;;;;;;;;;;;7.04;77.12;99693.34;103361;1254;110056;-65
2023/11/08 00:43:33;;;;;;;20.80;10.60;;;;;;;7.02;77.15;99689.77;103265;1254;124941;-65
2023/11/08 00:46:10;;;;;;;17.50;10.20;;;;;;;7.00;77.13;99689.62;103703;1254;96480;-65
2023/11/08 00:48:58;;;;;;;18.10;10.40;;;;;;;6.99;77.11;99693.96;103179;1254;138305;-64
2023/11/08 00:51:44;;;;;;;;;;;;;;;6.99;77.31;99692.23;103578;1256;95435;-64
2023/11/08 00:54:33;;;;;;;19.50;10.50;;;;;;;6.97;77.34;99686.93;103388;1258;111005;-64
2023/11/08 00:57:21;;;;;;;18.50;10.50;;;;;;;7.00;77.48;99683.41;103370;1258;108506;-64
2023/11/08 00:59:59;;;;;;;14.60;9.90;;;;;;;7.03;77.40;99677.64;103531;1254;96474;-64
2023/11/08 01:02:41;;;;;;;14.80;10.30;;;;;;;7.07;77.42;99674.92;103466;1254;137724;-65
2023/11/08 01:05:32;;;;;;;16.70;10.20;;;;;;;7.10;77.39;99669.13;103309;1258;96473;-65
2023/11/08 01:08:13;;;;;;;16.80;10.90;;;;;;;7.15;77.40;99669.34;103335;1258;137981;-65
2023/11/08 01:10:58;;;;;;;;;;;;;;;7.18;77.31;99674.27;103473;1254;108335;-65
2023/11/08 01:13:37;;;;;;;17.10;11.40;;;;;;;7.18;77.35;99675.31;103621;1258;124231;-65
2023/11/08 01:16:23;;;;;;;;;;;;;;;7.19;77.37;99667.33;103509;1256;107991;-65
2023/11/08 01:19:10;;;;;;;18.30;10.70;;;;;;;7.19;77.34;99665.09;103451;1254;124404;-65
2023/11/08 01:21:45;;;;;;;21.80;10.90;;;;;;;7.21;77.39;99669.52;103352;1256;108253;-65
2023/11/08 01:24:34;;;;;;;18.50;10.80;;;;;;;7.23;77.36;99664.27;103178;1255;108158;-65
2023/11/08 01:27:22;;;;;;;16.20;10.90;;;;;;;7.23;77.19;99661.85;103776;1255;96684;-65
2023/11/08 01:30:12;;;;;;;16.90;10.80;;;;;;;7.25;77.22;99660.25;103317;1256;108057;-64
2023/11/08 01:32:59;;;;;;;16.30;10.70;;;;;;;7.29;77.16;99658.22;102557;1258;1002709;-64
2023/11/08 01:35:42;;;;;;;17.10;10.60;;;;;;;7.34;77.18;99656.37;103402;1258;110205;-64
2023/11/08 01:38:27;;;;;;;;;;;;;;;7.38;77.12;99656.61;103218;1256;138571;-64
2023/11/08 01:41:15;;;;;;;15.40;10.10;;;;;;;7.42;77.21;99650.27;103252;1258;96365;-65
2023/11/08 01:44:01;;;;;;;;;;;;;;;7.43;77.11;99648.65;103378;1254;137890;-65
2023/11/08 01:46:50;;;;;;;17.70;10.60;;;;;;;7.45;76.98;99648.09;103249;1255;96553;-65
2023/11/08 01:49:38;;;;;;;18.60;10.30;;;;;;;7.47;76.99;99644.73;103282;1254;138000;-65
2023/11/08 01:52:29;;;;;;;20.90;11.10;;;;;;;7.47;76.66;99647.85;103317;1254;107771;-65
2023/11/08 01:55:17;;;;;;;15.70;10.10;;;;;;;7.47;76.73;99644.90;103205;1253;138140;-65
2023/11/08 01:58:05;;;;;;;15.90;11.00;;;;;;;7.47;76.77;99645.45;103215;1255;108609;-65
2023/11/08 02:00:55;;;;;;;16.20;10.50;;;;;;;7.44;76.70;99641.88;103162;1256;138415;-65
2023/11/08 02:03:27;;;;;;;17.40;11.00;;;;;;;7.42;76.78;99640.23;101793;1256;1002912;-65
2023/11/08 02:05:55;;;;;;;17.50;11.40;;;;;;;7.40;76.77;99632.68;103554;1255;107534;-65
2023/11/08 02:08:22;;;;;;;17.30;11.30;;;;;;;7.38;76.80;99634.98;103275;1255;138681;-65
2023/11/08 02:10:53;;;;;;;18.40;11.10;;;;;;;7.36;76.89;99639.52;103315;1256;108298;-65
2023/11/08 02:13:23;;;;;;;19.10;11.60;;;;;;;7.36;76.88;99638.84;103104;1256;138597;-65
2023/11/08 02:15:50;;;;;;;17.50;11.00;;;;;;;7.36;77.10;99636.25;103262;1253;111073;-65
2023/11/08 02:18:38;;;;;;;20.10;11.40;;;;;;;7.37;77.07;99638.98;103308;1256;110246;-65
2023/11/08 02:21:24;;;;;;;;;;;;;;;7.36;77.08;99638.48;103357;1254;97767;-64
2023/11/08 02:24:20;;;;;;;22.40;11.60;;;;;;;7.35;77.23;99637.98;103180;1255;107299;-65
2023/11/08 02:27:09;;;;;;;18.20;11.10;;;;;;;7.35;77.20;99636.95;103428;1257;96553;-65
2023/11/08 02:29:56;;;;;;;16.80;10.10;;;;;;;7.35;77.20;99636.10;103422;1253;111013;-64
2023/11/08 02:32:43;;;;;;;16.10;10.90;;;;;;;7.33;77.25;99633.55;103608;1253;138291;-65
2023/11/08 02:35:24;;;;;;;15.70;10.60;;;;;;;7.31;77.25;99632.94;103390;1253;96368;-64
2023/11/08 02:38:11;;;;;;;;;;;;;;;7.28;77.27;99629.88;102633;1253;1003455;-65
2023/11/08 02:40:49;;;;;;;17.40;11.20;;;;;;;7.26;77.28;99634.61;103398;1259;96433;-65
2023/11/08 02:43:37;;;;;;;19.70;11.10;;;;;;;7.24;77.42;99639.34;103321;1259;137776;-65
2023/11/08 02:46:22;;;;;;;;;;;;;;;7.23;77.54;99645.08;103448;1253;108264;-63
2023/11/08 02:49:11;;;;;;;17.50;11.10;;;;;;;7.20;77.71;99644.30;103367;1258;125779;-63
2023/11/08 02:51:59;;;;;;;17.60;10.00;;;;;;;7.17;77.64;99644.55;103428;1253;107894;-65
2023/11/08 02:54:50;;;;;;;18.30;10.90;;;;;;;7.17;77.75;99644.73;103453;1253;96453;-65
2023/11/08 02:57:42;;;;;;;17.40;11.80;;;;;;;7.13;77.90;99643.96;103604;1258;110785;-65
2023/11/08 03:00:30;;;;;;;17.10;11.60;;;;;;;7.12;77.79;99644.33;103474;1258;108113;-65
2023/11/08 03:03:17;;;;;;;18.30;11.00;;;;;;;7.12;78.01;99646.78;103551;1253;96343;-65
2023/11/08 03:06:09;;;;;;;;;;;;;;;7.12;78.13;99646.92;103026;1255;5345495;-65
2023/11/08 03:08:56;;;;;;;19.70;11.30;;;;;;;7.10;78.18;99650.10;103179;1253;124277;-65
2023/11/08 03:11:43;;;;;;;19.00;11.50;;;;;;;7.10;78.18;99652.89;103369;1253;96363;-64
2023/11/08 03:14:31;;;;;;;19.30;11.90;;;;;;;7.10;78.27;99657.70;103322;1259;138055;-64
2023/11/08 03:17:19;;;;;;;18.70;11.20;;;;;;;7.10;78.29;99663.27;103373;1253;96667;-64
2023/11/08 03:19:46;;;;;;;16.40;10.70;;;;;;;7.10;78.42;99661.36;103438;1256;138509;-64
2023/11/08 03:22:13;;;;;;;20.20;12.10;;;;;;;7.12;78.39;99664.40;103643;1253;107666;-64
2023/11/08 03:24:41;;;;;;;17.90;11.70;;;;;;;7.13;78.49;99665.57;103746;1253;96479;-64
2023/11/08 03:27:08;;;;;;;17.70;11.90;;;;;;;7.17;78.53;99660.29;103748;1259;137826;-64
2023/11/08 03:29:35;;;;;;;20.00;12.20;;;;;;;7.19;78.46;99658.86;103845;1254;96476;-64
2023/11/08 03:32:02;;;;;;;20.20;12.50;;;;;;;7.22;78.47;99662.92;103800;1253;137990;-64
2023/11/08 03:34:49;;;;;;;19.30;12.50;;;;;;;7.24;78.57;99665.48;103657;1253;108566;-66
2023/11/08 03:37:26;;;;;;;17.80;11.50;;;;;;;7.25;78.57;99666.46;103660;1258;138415;-64
2023/11/08 03:40:11;;;;;;;19.00;11.30;;;;;;;7.28;78.47;99666.38;103355;1254;108485;-64
2023/11/08 03:42:59;;;;;;;19.10;12.20;;;;;;;7.34;78.57;99664.48;103335;1253;138582;-64
2023/11/08 03:45:45;;;;;;;;;;;;;;;7.40;78.57;99656.73;104047;1256;109812;-64
2023/11/08 03:48:32;;;;;;;20.50;11.70;;;;;;;7.42;78.50;99656.48;103460;1256;107646;-64
2023/11/08 03:51:18;;;;;;;;;;;;;;;7.46;78.46;99655.15;103461;1256;96524;-64
2023/11/08 03:54:07;;;;;;;23.20;12.40;;;;;;;7.46;78.32;99649.27;103394;1254;107599;-64
2023/11/08 03:56:54;;;;;;;22.50;12.30;;;;;;;7.50;78.47;99644.82;103319;1259;138155;-64
2023/11/08 03:59:40;;;;;;;;;;;;;;;7.52;78.27;99644.91;103377;1253;109881;-64
2023/11/08 04:02:28;;;;;;;18.30;12.20;;;;;;;7.54;78.26;99645.57;103352;1257;124391;-63
2023/11/08 04:04:58;;;;;;;21.60;12.20;;;;;;;7.56;78.27;99643.95;103460;1255;96482;-63
2023/11/08 04:07:27;;;;;;;16.80;11.90;;;;;;;7.59;78.27;99641.96;103376;1253;138075;-64
2023/11/08 04:09:57;;;;;;;18.80;11.90;;;;;;;7.62;78.05;99646.90;103579;1253;96786;-64
2023/11/08 04:12:24;;;;;;;19.90;11.70;;;;;;;7.65;78.09;99642.48;103476;1253;110964;-64
2023/11/08 04:14:52;;;;;;;20.10;12.40;;;;;;;7.67;77.99;99646.05;103389;1258;138199;-63
2023/11/08 04:17:19;;;;;;;21.20;12.30;;;;;;;7.68;77.93;99642.21;103892;1253;96001;-64
2023/11/08 04:19:58;;;;;;;19.20;12.60;;;;;;;7.67;77.87;99641.38;103563;1253;139041;-64
2023/11/08 04:22:46;;;;;;;17.50;11.60;;;;;;;7.68;77.94;99641.52;103385;1254;96463;-64
2023/11/08 04:25:33;;;;;;;18.40;11.50;;;;;;;7.68;77.76;99639.61;103885;1256;138217;-64
2023/11/08 04:28:20;;;;;;;19.40;11.70;;;;;;;7.68;77.88;99639.27;103398;1253;107572;-64
2023/11/08 04:31:08;;;;;;;19.30;11.80;;;;;;;7.69;77.85;99645.27;103311;1257;138944;-65
2023/11/08 04:33:56;;;;;;;19.30;12.10;;;;;;;7.70;77.79;99643.87;103400;1253;108014;-64
2023/11/08 04:36:34;;;;;;;19.90;11.90;;;;;;;7.70;77.78;99644.39;103455;1253;96444;-64
2023/11/08 04:39:02;;;;;;;21.50;11.90;;;;;;;7.67;77.74;99642.74;103343;1257;137995;-65
2023/11/08 04:41:39;;;;;;;21.60;13.00;;;;;;;7.65;77.61;99643.86;103395;1253;109213;-65
2023/11/08 04:44:21;;;;;;;18.70;11.40;;;;;;;7.63;77.63;99642.89;101857;1254;1003451;-65
2023/11/08 04:46:58;;;;;;;18.50;12.10;;;;;;;7.60;77.70;99646.62;103508;1258;107837;-64
2023/11/08 04:49:47;;;;;;;20.70;12.90;;;;;;;7.57;77.64;99654.14;103403;1253;138346;-64
2023/11/08 04:52:23;;;;;;;22.10;12.20;;;;;;;7.55;77.80;99659.91;103413;1254;110739;-64
2023/11/08 04:55:11;;;;;;;18.20;11.40;;;;;;;7.54;77.90;99656.46;103435;1255;138471;-65
2023/11/08 04:57:59;;;;;;;18.80;12.10;;;;;;;7.51;77.92;99652.20;103717;1258;96469;-64
2023/11/08 05:00:46;;;;;;;19.50;11.70;;;;;;;7.51;77.99;99655.69;103275;1256;108606;-64
2023/11/08 05:03:33;;;;;;;20.60;12.50;;;;;;;7.52;78.02;99654.63;104216;1253;94401;-65
2023/11/08 05:06:10;;;;;;;18.00;11.60;;;;;;;7.51;78.16;99656.73;103525;1253;110758;-64
2023/11/08 05:08:57;;;;;;;18.90;11.60;;;;;;;7.52;78.09;99661.20;103244;1255;138420;-65
2023/11/08 05:11:45;;;;;;;16.50;11.40;;;;;;;7.53;78.10;99665.50;103850;1253;94421;-64
2023/11/08 05:14:32;;;;;;;17.60;11.30;;;;;;;7.55;78.13;99660.61;103435;1258;138193;-64
2023/11/08 05:17:20;;;;;;;;;;;;;;;7.58;78.15;99657.75;103375;1258;96450;-65
2023/11/08 05:20:10;;;;;;;23.70;12.30;;;;;;;7.61;78.21;99659.91;103372;1253;124089;-69
2023/11/08 05:22:56;;;;;;;19.20;11.70;;;;;;;7.64;78.13;99660.67;103377;1259;108268;-67
2023/11/08 05:25:41;;;;;;;;;;;;;;;7.68;78.12;99658.83;103316;1253;138338;-67
2023/11/08 05:28:31;;;;;;;21.60;11.60;;;;;;;7.68;78.09;99663.82;103550;1259;108742;-67
2023/11/08 05:31:19;;;;;;;21.60;11.60;;;;;;;7.68;78.04;99670.59;103317;1259;138299;-66
2023/11/08 05:34:07;;;;;;;22.70;11.40;;;;;;;7.66;78.00;99669.79;103474;1253;111289;-66
2023/11/08 05:36:53;;;;;;;21.10;11.10;;;;;;;7.66;78.01;99669.97;103589;1253;107799;-66
2023/11/08 05:39:24;;;;;;;16.70;11.40;;;;;;;7.67;78.08;99675.10;103311;1257;137982;-65
2023/11/08 05:42:12;;;;;;;17.90;10.50;;;;;;;7.70;78.14;99677.26;103553;1254;108212;-65
2023/11/08 05:44:50;;;;;;;;;;;;;;;7.69;78.16;99674.36;103504;1257;138082;-66
2023/11/08 05:47:38;;;;;;;17.40;11.00;;;;;;;7.66;78.20;99680.70;103301;1257;112081;-66
2023/11/08 05:50:26;;;;;;;18.70;11.50;;;;;;;7.65;78.17;99682.96;103326;1253;138127;-66
2023/11/08 05:53:14;;;;;;;20.70;10.80;;;;;;;7.64;78.19;99681.61;103447;1255;96449;-66
2023/11/08 05:56:01;;;;;;;15.90;10.50;;;;;;;7.62;78.20;99680.63;103722;1254;138942;-66
2023/11/08 05:58:49;;;;;;;20.70;11.40;;;;;;;7.63;78.33;99682.52;103328;1253;96478;-66
2023/11/08 06:01:36;;;;;;;18.20;10.80;;;;;;;7.60;78.28;99681.70;103213;1254;138164;-66
2023/11/08 06:04:05;;;;;;;17.40;10.60;;;;;;;7.65;78.49;99686.44;103349;1253;108292;-65
2023/11/08 06:06:53;;;;;;;19.80;11.90;;;;;;;7.63;78.27;99690.80;103577;1257;97921;-66
2023/11/08 06:09:43;;;;;;;22.40;12.00;;;;;;;7.63;78.38;99691.85;103498;1259;108265;-66
2023/11/08 06:12:10;;;;;;;17.70;11.50;;;;;;;7.65;78.29;99695.60;103397;1253;97345;-66
2023/11/08 06:14:37;;;;;;;18.00;11.30;;;;;;;7.68;78.46;99696.90;103286;1256;138542;-69
2023/11/08 06:17:05;;;;;;;20.40;12.20;;;;;;;7.71;78.40;99702.16;103362;1259;109316;-65
2023/11/08 06:19:52;;;;;;;16.10;11.00;;;;;;;7.71;78.24;99702.16;103228;1256;138578;-66
2023/11/08 06:22:40;;;;;;;15.90;10.60;;;;;;;7.71;78.25;99701.64;103262;1258;108978;-66
2023/11/08 06:25:20;;;;;;;19.90;12.00;;;;;;;7.72;78.32;99704.05;103259;1257;138904;-66
2023/11/08 06:28:07;;;;;;;16.10;11.30;;;;;;;7.72;78.28;99704.39;103514;1256;110987;-66
2023/11/08 06:30:55;;;;;;;21.50;11.10;;;;;;;7.74;78.22;99705.05;103409;1258;106966;-67
2023/11/08 06:33:42;;;;;;;23.30;11.10;;;;;;;7.74;78.20;99706.23;103458;1254;96445;-66
2023/11/08 06:36:13;;;;;;;19.60;11.10;;;;;;;7.75;78.09;99709.17;103377;1253;108826;-67
2023/11/08 06:39:01;;;;;;;19.00;11.50;;;;;;;7.77;78.15;99710.13;103201;1253;138176;-66
2023/11/08 06:41:48;;;;;;;19.30;11.40;;;;;;;7.86;78.28;99713.30;103359;1254;111837;-66
2023/11/08 06:44:35;;;;;;;19.80;12.50;;;;;;;7.99;78.35;99714.51;103242;1253;138377;-64
2023/11/08 06:47:12;;;;;;;19.30;12.10;;;;;;;8.12;78.10;99712.89;103412;1254;96472;-70
2023/11/08 06:49:59;;;;;;;21.80;11.70;;;;;;;8.31;77.87;99714.91;103258;1259;138554;-70
2023/11/08 06:52:37;;;;;;;18.50;11.80;;;;;;;8.45;77.49;99709.45;103210;1253;96879;-67
2023/11/08 06:55:04;;;;;;;20.20;11.70;;;;;;;8.62;77.22;99716.19;103438;1259;109328;-69
2023/11/08 06:57:46;;;;;;;22.50;12.00;;;;;;;8.88;76.80;99716.70;103334;1259;108363;-68
2023/11/08 07:00:34;;;;;;;20.70;11.50;;;;;;;9.58;75.92;99713.56;103373;1254;96481;-68
2023/11/08 07:03:22;;;;;;;21.10;11.70;;;;;;;10.34;74.70;99713.80;103324;1259;138167;-68
2023/11/08 07:05:49;;;;;;;22.10;11.40;;;;;;;11.00;73.69;99710.05;103483;1259;96470;-68
2023/11/08 07:08:35;;;;;;;;;;;;;;;11.66;72.74;99707.17;103651;1254;138831;-69
2023/11/08 07:11:03;;;;;;;19.20;10.90;;;;;;;11.86;71.54;99710.30;103359;1259;108447;-68
2023/11/08 07:13:30;;;;;;;18.80;11.20;;;;;;;11.86;70.92;99709.41;103343;1254;138751;-68
2023/11/08 07:15:59;;;;;;;19.90;11.50;;;;;;;11.79;70.27;99710.39;103335;1255;108146;-68
2023/11/08 07:18:26;;;;;;;20.30;11.30;;;;;;;11.72;70.24;99711.41;103353;1259;96469;-67
2023/11/08 07:20:54;;;;;;;17.40;10.20;;;;;;;11.60;69.99;99706.52;103276;1254;138319;-68
2023/11/08 07:23:29;;;;;;;16.90;11.10;;;;;;;11.46;69.92;99715.01;103351;1259;107595;-68
2023/11/08 07:26:00;;;;;;;17.80;10.70;;;;;;;11.27;69.84;99719.86;103133;1258;138666;-67
2023/11/08 07:28:48;;;;;;;19.80;10.60;;;;;;;11.09;70.01;99721.86;103325;1259;107649;-68
2023/11/08 07:31:34;;;;;;;;;;;;;;;10.90;70.11;99726.10;103257;1259;138549;-67
2023/11/08 07:34:22;;;;;;;15.90;10.20;;;;;;;10.77;70.60;99728.06;103362;1260;109931;-68
2023/11/08 07:36:51;;;;;;;19.30;10.40;;;;;;;10.70;70.67;99730.25;103353;1254;107600;-68
2023/11/08 07:39:18;;;;;;;18.40;10.00;;;;;;;10.65;70.79;99729.45;103290;1259;138490;-68
2023/11/08 07:42:13;;;;;;;16.80;10.60;;;;;;;10.53;70.83;99730.05;103435;1253;108576;-68
2023/11/08 07:45:00;;;;;;;18.60;10.30;;;;;;;10.44;71.12;99735.84;103296;1254;138378;-69
2023/11/08 07:47:48;;;;;;;16.50;10.90;;;;;;;10.37;71.17;99736.48;103392;1257;111211;-69
2023/11/08 07:50:26;;;;;;;14.40;10.10;;;;;;;10.28;71.27;99741.33;103748;1257;138744;-68
2023/11/08 07:53:06;;;;;;;18.60;10.00;;;;;;;10.22;71.60;99738.59;103676;1257;96357;-69
2023/11/08 07:55:49;;;;;;;14.10;10.10;;;;;;;10.19;71.74;99739.02;103518;1254;138357;-68
2023/11/08 07:58:26;;;;;;;18.40;10.30;;;;;;;10.10;71.66;99745.45;103414;1254;96453;-68
2023/11/08 08:05:04;;;;;;;16.50;10.40;;;;;;;10.11;72.29;99738.30;103296;1259;107196;-69
2023/11/08 08:07:52;;;;;;;13.50;9.30;;;;;;;10.20;72.46;99734.83;103334;1260;138477;-68
2023/11/08 08:10:44;;;;;;;14.20;10.20;;;;;;;10.26;72.45;99737.08;103267;1260;109020;-69
2023/11/08 08:13:41;;;;;;;16.40;9.90;;;;;;;10.29;72.47;99734.52;103198;1260;140086;-68
2023/11/08 08:16:28;;;;;;;14.50;9.50;;;;;;;10.28;72.33;99738.89;103317;1256;109926;-69
2023/11/08 08:19:16;;;;;;;12.80;8.90;;;;;;;10.28;72.51;99738.88;103196;1260;108143;-69
2023/11/08 08:21:58;;;;;;;14.00;8.90;;;;;;;10.29;72.64;99738.48;103344;1262;96454;-68
2023/11/08 08:24:28;;;;;;;14.50;9.10;;;;;;;10.32;72.59;99735.11;103366;1258;108042;-69
2023/11/08 08:26:55;;;;;;;16.40;9.20;;;;;;;10.31;72.72;99733.91;103336;1260;138552;-70
2023/11/08 08:29:24;;;;;;;13.60;9.60;;;;;;;10.36;72.75;99735.80;103319;1257;110387;-67
2023/11/08 08:31:51;;;;;;;17.10;9.20;;;;;;;10.38;72.78;99734.68;103161;1259;138489;-67
2023/11/08 08:34:19;;;;;;;11.90;8.40;;;;;;;10.42;72.84;99730.68;103410;1260;96630;-68
2023/11/08 08:37:09;;;;;;;11.80;8.00;;;;;;;10.53;72.83;99732.86;102445;1261;1003053;-67
2023/11/08 08:39:56;;;;;;;15.10;9.00;;;;;;;10.59;72.74;99731.03;103671;1260;138189;-67
2023/11/08 08:42:44;;;;;;;12.30;8.20;;;;;;;10.71;72.85;99734.72;103199;1260;110610;-67
2023/11/08 08:45:24;;;;;;;15.00;8.30;;;;;;;10.84;72.44;99738.20;103077;1257;138155;-67
2023/11/08 08:48:05;;;;;;;12.70;8.30;;;;;;;10.95;72.31;99737.58;103037;1258;97039;-67
2023/11/08 08:50:32;;;;;;;12.70;8.10;;;;;;;11.04;72.07;99733.89;103504;1257;138001;-67
2023/11/08 08:52:59;;;;;;;11.00;8.10;;;;;;;11.18;72.03;99731.52;103293;1254;96445;-66
2023/11/08 08:55:26;;;;;;;11.80;8.10;;;;;;;11.34;71.62;99731.20;103283;1257;109422;-68
2023/11/08 08:57:53;;;;;;;13.10;8.20;;;;;;;11.50;71.33;99732.24;103141;1258;138517;-68
2023/11/08 09:00:23;;;;;;;13.50;8.10;;;;;;;11.67;71.05;99729.73;103191;1257;96928;-67
2023/11/08 09:02:52;;;;;;;10.00;7.80;;;;;;;11.82;70.65;99736.41;103200;1260;138136;-74
2023/11/08 09:05:30;;;;;;;11.30;7.70;;;;;;;12.02;70.55;99734.98;103003;1261;96598;-70
2023/11/08 09:08:17;;;;;;;12.40;7.50;;;;;;;12.28;70.08;99734.11;102982;1260;138220;-69
2023/11/08 09:10:48;;;;;;;10.70;7.60;;;;;;;12.57;69.75;99738.12;102937;1263;108028;-69
2023/11/08 09:13:24;;;;;;;14.10;7.50;;;;;;;12.72;68.79;99740.70;103150;1257;96472;-70
2023/11/08 09:15:52;;;;;;;10.40;7.20;;;;;;;12.79;68.28;99740.56;102987;1260;138569;-70
2023/11/08 09:18:40;;;;;;;14.00;7.30;;;;;;;12.92;68.12;99737.61;103018;1257;96537;-70
2023/11/08 09:21:27;;;;;;;9.50;7.20;;;;;;;13.13;67.69;99738.12;102976;1257;138774;-70
2023/11/08 09:24:16;;;;;;;10.30;7.40;;;;;;;13.19;67.21;99735.73;103074;1257;108501;-70
2023/11/08 09:26:47;;;;;;;11.20;6.90;;;;;;;13.32;66.72;99734.91;103014;1258;138327;-70
2023/11/08 09:29:14;;;;;;;11.70;7.30;;;;;;;13.35;66.38;99734.06;103205;1257;108076;-70
2023/11/08 09:31:42;;;;;;;10.40;7.10;;;;;;;13.36;66.17;99734.89;102589;1260;137947;-70
2023/11/08 09:34:09;;;;;;;8.90;6.90;;;;;;;13.32;66.03;99737.21;102846;1257;110279;-70
2023/11/08 09:36:36;;;;;;;12.50;7.20;;;;;;;13.26;65.93;99734.86;102745;1260;107655;-70
2023/11/08 09:39:09;;;;;;;10.10;7.40;;;;;;;13.10;65.77;99736.18;102635;1260;139341;-71
2023/11/08 09:41:48;;;;;;;10.70;8.10;;;;;;;13.01;66.28;99731.04;102763;1259;107833;-70
2023/11/08 09:44:17;;;;;;;11.30;7.50;;;;;;;13.04;66.24;99730.89;102672;1256;138354;-70
2023/11/08 09:46:50;;;;;;;11.60;8.40;;;;;;;13.06;65.62;99731.48;102828;1257;108980;-70
2023/11/08 09:49:29;;;;;;;10.30;8.20;;;;;;;12.96;65.89;99732.86;102881;1259;108613;-71
2023/11/08 09:51:58;;;;;;;13.10;8.00;;;;;;;13.08;66.13;99736.11;102668;1257;137998;-70
2023/11/08 09:54:25;;;;;;;9.70;7.30;;;;;;;13.22;65.83;99732.23;102779;1259;108064;-71
2023/11/08 09:56:53;;;;;;;9.90;7.20;;;;;;;13.26;65.30;99734.52;102673;1260;137813;-70
2023/11/08 09:59:24;;;;;;;8.20;6.70;;;;;;;13.18;65.52;99732.14;102772;1256;110079;-71
2023/11/08 10:01:54;;;;;;;9.10;6.70;;;;;;;13.02;65.28;99732.04;102694;1256;138334;-71
2023/11/08 10:04:23;;;;;;;12.30;6.40;;;;;;;12.89;65.62;99732.89;103219;1257;96564;-72
2023/11/08 10:07:05;;;;;;;8.20;5.90;;;;;;;12.74;65.51;99730.47;102806;1257;107337;-70
2023/11/08 10:09:36;;;;;;;7.00;5.70;;;;;;;12.56;65.35;99732.75;102716;1258;138536;-70
2023/11/08 10:12:06;;;;;;;7.50;5.70;;;;;;;12.38;65.91;99728.02;102852;1257;110343;-70
2023/11/08 10:14:46;;;;;;;9.80;5.70;;;;;;;12.20;66.09;99733.11;102744;1257;138528;-70
2023/11/08 10:17:19;;;;;;;7.40;5.70;;;;;;;12.01;66.57;99735.89;102850;1256;96480;-70
2023/11/08 10:20:11;;;;;;;8.70;6.40;;;;;;;11.86;67.11;99731.70;102650;1260;138346;-70
2023/11/08 10:22:50;;;;;;;11.30;6.30;;;;;;;11.77;67.43;99726.18;102763;1260;96455;-70
2023/11/08 10:25:18;;;;;;;9.40;6.60;;;;;;;11.66;67.69;99719.52;102877;1257;110516;-70
2023/11/08 10:28:07;;;;;;;9.40;6.60;;;;;;;11.56;68.07;99716.84;102710;1257;106981;-68
2023/11/08 10:30:46;;;;;;;8.20;6.50;;;;;;;11.56;68.43;99709.20;102970;1260;96433;-72
2023/11/08 10:33:36;;;;;;;9.40;6.80;;;;;;;11.58;68.40;99707.17;103084;1257;137931;-72
2023/11/08 10:36:02;;;;;;;7.70;6.70;;;;;;;11.66;68.78;99703.66;103066;1257;96453;-72
2023/11/08 10:38:33;;;;;;;11.20;6.90;;;;;;;11.77;68.72;99704.92;103031;1260;137800;-68
2023/11/08 10:41:00;;;;;;;8.60;6.60;;;;;;;11.89;68.61;99703.67;103121;1257;108612;-68
2023/11/08 10:43:27;;;;;;;10.10;7.20;;;;;;;12.13;68.95;99697.70;103178;1258;96350;-68
2023/11/08 10:45:55;;;;;;;7.90;6.40;;;;;;;12.46;68.83;99696.98;103092;1259;138211;-67
2023/11/08 10:48:26;;;;;;;9.10;6.40;;;;;;;12.86;68.82;99689.02;103198;1257;96459;-69
2023/11/08 10:50:54;;;;;;;9.10;6.70;;;;;;;13.29;67.90;99693.49;103094;1257;138370;-67
2023/11/08 10:53:21;;;;;;;7.10;6.10;;;;;;;13.57;66.99;99691.85;103130;1260;108274;-67
2023/11/08 10:55:48;;;;;;;8.70;6.70;;;;;;;13.67;66.03;99696.58;103055;1260;138157;-67
2023/11/08 10:58:20;;;;;;;9.60;6.80;;;;;;;13.65;65.65;99694.60;103220;1259;107420;-69
2023/11/08 11:01:09;;;;;;;10.30;6.00;;;;;;;13.63;65.57;99690.80;103135;1257;96475;-68
2023/11/08 11:03:38;;;;;;;8.80;6.50;;;;;;;13.75;65.33;99691.39;103381;1257;138427;-68
2023/11/08 11:06:06;;;;;;;10.40;6.30;;;;;;;13.99;65.56;99693.58;103136;1257;108342;-68
2023/11/08 11:08:40;;;;;;;10.10;6.10;;;;;;;14.24;64.77;99683.84;103098;1258;137808;-68
2023/11/08 11:11:08;;;;;;;7.60;6.00;;;;;;;14.31;63.88;99692.01;103184;1257;108729;-68
2023/11/08 11:13:44;;;;;;;8.80;6.30;;;;;;;14.29;63.80;99694.02;103347;1257;96553;-68
2023/11/08 11:16:22;;;;;;;8.20;6.10;;;;;;;14.22;63.78;99692.69;103402;1257;109966;-68
2023/11/08 11:19:04;;;;;;;6.60;5.80;;;;;;;13.99;63.21;99691.52;103110;1257;107596;-68
2023/11/08 11:21:43;;;;;;;9.20;6.20;;;;;;;13.75;63.30;99694.39;103135;1257;137673;-68
2023/11/08 11:24:39;;;;;;;7.30;5.90;;;;;;;13.52;63.53;99695.59;103478;1257;108130;-68
2023/11/08 11:27:07;;;;;;;11.70;6.20;;;;;;;13.37;64.02;99691.90;103148;1258;137664;-69
2023/11/08 11:29:35;;;;;;;8.30;6.20;;;;;;;13.25;63.96;99695.09;103341;1260;109809;-69
2023/11/08 11:32:04;;;;;;;9.10;6.10;;;;;;;13.13;64.17;99696.09;103030;1257;138684;-68
2023/11/08 11:34:46;;;;;;;10.80;6.30;;;;;;;12.96;64.32;99692.88;103281;1257;96569;-70
2023/11/08 11:37:18;;;;;;;11.80;5.60;;;;;;;12.83;64.68;99696.90;103147;1260;107801;-71
2023/11/08 11:40:19;;;;;;;6.40;4.30;;;;;;;12.81;64.49;99699.95;103046;1259;138319;-69
2023/11/08 11:42:46;;;;;;;6.10;4.20;;;;;;;12.72;64.18;99701.41;103192;1257;110302;-70
2023/11/08 11:45:14;;;;;;;5.90;4.40;;;;;;;12.63;64.14;99694.56;103034;1257;138014;-70
2023/11/08 11:47:42;;;;;;;8.10;3.80;;;;;;;12.62;64.29;99689.20;103198;1257;98154;-70
2023/11/08 11:50:20;;;;;;;6.60;4.20;;;;;;;12.63;64.40;99691.75;103120;1257;138126;-69
2023/11/08 11:52:51;;;;;;;6.50;4.10;;;;;;;12.50;64.03;99691.73;103099;1256;96444;-69
2023/11/08 11:55:23;;;;;;;4.80;4.20;;;;;;;12.34;64.31;99689.54;103222;1256;110738;-68
2023/11/08 11:57:55;;;;;;;5.90;4.40;;;;;;;12.23;64.63;99688.48;102992;1260;138246;-69
2023/11/08 12:00:26;;;;;;;5.50;4.10;;;;;;;12.16;64.87;99693.35;103222;1256;96850;-69
2023/11/08 12:02:57;;;;;;;11.70;8.00;;;;;;;12.10;65.14;99692.95;103043;1256;137994;-68
2023/11/08 12:05:35;;;;;;;5.30;4.20;;;;;;;12.08;65.47;99693.40;103113;1259;96354;-68
2023/11/08 12:08:25;;;;;;;7.80;6.40;;;;;;;12.09;65.78;99692.82;103043;1257;137956;-68
2023/11/08 12:14:50;;;;;;;5.60;3.50;;;;;;;12.15;65.41;99691.99;103129;1259;137977;-67
2023/11/08 12:17:17;;;;;;;5.10;3.30;;;;;;;12.12;65.05;99693.91;103107;1260;108323;-68
2023/11/08 12:19:48;;;;;;;6.70;3.20;;;;;;;12.05;64.81;99696.33;103029;1256;138192;-67